sensor_id;sensor_type;location;lat;lon;timestamp;temperature;humidity
40822;DHT22;26542;50.836;5.356;2022-07-24T00:01:41;20.30;94.50
40822;DHT22;26542;50.836;5.356;2022-07-24T00:04:10;20.20;94.50
40822;DHT22;26542;50.836;5.356;2022-07-24T00:06:36;20.20;94.50
40822;DHT22;26542;50.836;5.356;2022-07-24T00:09:03;20.20;94.60
40822;DHT22;26542;50.836;5.356;2022-07-24T00:11:32;20.30;94.60
40822;DHT22;26542;50.836;5.356;2022-07-24T00:13:57;20.30;94.60
40822;DHT22;26542;50.836;5.356;2022-07-24T00:16:23;20.20;94.50
40822;DHT22;26542;50.836;5.356;2022-07-24T00:18:49;20.20;94.60
40822;DHT22;26542;50.836;5.356;2022-07-24T00:21:15;20.20;94.60
40822;DHT22;26542;50.836;5.356;2022-07-24T00:23:41;20.20;94.70
40822;DHT22;26542;50.836;5.356;2022-07-24T00:26:09;20.20;94.90
40822;DHT22;26542;50.836;5.356;2022-07-24T00:28:35;20.10;95.10
40822;DHT22;26542;50.836;5.356;2022-07-24T00:31:01;20.20;95.00
40822;DHT22;26542;50.836;5.356;2022-07-24T00:33:27;20.20;94.90
40822;DHT22;26542;50.836;5.356;2022-07-24T00:35:53;20.20;94.80
40822;DHT22;26542;50.836;5.356;2022-07-24T00:38:22;20.20;94.90
40822;DHT22;26542;50.836;5.356;2022-07-24T00:40:48;20.20;94.90
40822;DHT22;26542;50.836;5.356;2022-07-24T00:43:14;20.00;95.10
40822;DHT22;26542;50.836;5.356;2022-07-24T00:45:42;20.00;95.20
40822;DHT22;26542;50.836;5.356;2022-07-24T00:48:08;20.00;95.10
40822;DHT22;26542;50.836;5.356;2022-07-24T00:50:35;20.00;95.20
40822;DHT22;26542;50.836;5.356;2022-07-24T00:53:02;19.90;95.50
40822;DHT22;26542;50.836;5.356;2022-07-24T00:55:28;19.90;95.80
40822;DHT22;26542;50.836;5.356;2022-07-24T00:57:54;19.80;96.10
40822;DHT22;26542;50.836;5.356;2022-07-24T01:00:23;19.60;96.40
40822;DHT22;26542;50.836;5.356;2022-07-24T01:02:50;19.50;96.60
40822;DHT22;26542;50.836;5.356;2022-07-24T01:05:17;19.50;96.60
40822;DHT22;26542;50.836;5.356;2022-07-24T01:07:43;19.40;96.70
40822;DHT22;26542;50.836;5.356;2022-07-24T01:10:12;19.40;96.80
40822;DHT22;26542;50.836;5.356;2022-07-24T01:12:39;19.40;96.90
40822;DHT22;26542;50.836;5.356;2022-07-24T01:15:10;19.40;96.80
40822;DHT22;26542;50.836;5.356;2022-07-24T01:17:38;19.40;96.50
40822;DHT22;26542;50.836;5.356;2022-07-24T01:20:06;19.40;96.50
40822;DHT22;26542;50.836;5.356;2022-07-24T01:22:33;19.40;96.50
40822;DHT22;26542;50.836;5.356;2022-07-24T01:25:01;19.40;96.60
40822;DHT22;26542;50.836;5.356;2022-07-24T01:27:27;19.40;96.60
40822;DHT22;26542;50.836;5.356;2022-07-24T01:29:53;19.30;96.60
40822;DHT22;26542;50.836;5.356;2022-07-24T01:32:22;19.30;96.80
40822;DHT22;26542;50.836;5.356;2022-07-24T01:34:48;19.40;96.80
40822;DHT22;26542;50.836;5.356;2022-07-24T01:37:14;19.30;96.90
40822;DHT22;26542;50.836;5.356;2022-07-24T01:39:40;19.30;96.90
40822;DHT22;26542;50.836;5.356;2022-07-24T01:42:06;19.30;97.00
40822;DHT22;26542;50.836;5.356;2022-07-24T01:44:31;19.20;97.00
40822;DHT22;26542;50.836;5.356;2022-07-24T01:47:00;19.30;96.90
40822;DHT22;26542;50.836;5.356;2022-07-24T01:49:26;19.30;97.00
40822;DHT22;26542;50.836;5.356;2022-07-24T01:51:52;19.20;97.00
40822;DHT22;26542;50.836;5.356;2022-07-24T01:54:20;19.20;97.10
40822;DHT22;26542;50.836;5.356;2022-07-24T01:56:46;19.10;97.20
40822;DHT22;26542;50.836;5.356;2022-07-24T01:59:12;19.10;97.40
40822;DHT22;26542;50.836;5.356;2022-07-24T02:01:38;19.10;97.40
40822;DHT22;26542;50.836;5.356;2022-07-24T02:04:04;19.10;97.40
40822;DHT22;26542;50.836;5.356;2022-07-24T02:06:30;19.20;97.40
40822;DHT22;26542;50.836;5.356;2022-07-24T02:08:55;19.20;97.50
40822;DHT22;26542;50.836;5.356;2022-07-24T02:11:21;19.20;97.50
40822;DHT22;26542;50.836;5.356;2022-07-24T02:13:47;19.30;97.50
40822;DHT22;26542;50.836;5.356;2022-07-24T02:16:13;19.40;97.50
40822;DHT22;26542;50.836;5.356;2022-07-24T02:18:39;19.40;97.70
40822;DHT22;26542;50.836;5.356;2022-07-24T02:21:07;19.30;97.80
40822;DHT22;26542;50.836;5.356;2022-07-24T02:23:33;19.30;98.00
40822;DHT22;26542;50.836;5.356;2022-07-24T02:25:59;19.30;98.10
40822;DHT22;26542;50.836;5.356;2022-07-24T02:28:27;19.20;98.20
40822;DHT22;26542;50.836;5.356;2022-07-24T02:30:53;19.20;98.30
40822;DHT22;26542;50.836;5.356;2022-07-24T02:33:19;19.20;98.40
40822;DHT22;26542;50.836;5.356;2022-07-24T02:35:46;19.30;98.50
40822;DHT22;26542;50.836;5.356;2022-07-24T02:38:13;19.30;98.60
40822;DHT22;26542;50.836;5.356;2022-07-24T02:40:40;19.20;98.60
40822;DHT22;26542;50.836;5.356;2022-07-24T02:43:06;19.20;98.80
40822;DHT22;26542;50.836;5.356;2022-07-24T02:45:32;19.20;98.90
40822;DHT22;26542;50.836;5.356;2022-07-24T02:47:58;19.20;98.90
40822;DHT22;26542;50.836;5.356;2022-07-24T02:50:30;19.20;98.90
40822;DHT22;26542;50.836;5.356;2022-07-24T02:52:56;19.20;98.90
40822;DHT22;26542;50.836;5.356;2022-07-24T02:55:22;19.20;99.00
40822;DHT22;26542;50.836;5.356;2022-07-24T02:57:48;19.30;99.00
40822;DHT22;26542;50.836;5.356;2022-07-24T03:00:17;19.20;99.00
40822;DHT22;26542;50.836;5.356;2022-07-24T03:02:43;19.20;99.00
40822;DHT22;26542;50.836;5.356;2022-07-24T03:05:12;19.20;99.20
40822;DHT22;26542;50.836;5.356;2022-07-24T03:07:38;19.20;99.30
40822;DHT22;26542;50.836;5.356;2022-07-24T03:10:07;19.20;99.30
40822;DHT22;26542;50.836;5.356;2022-07-24T03:12:33;19.20;99.40
40822;DHT22;26542;50.836;5.356;2022-07-24T03:14:59;19.20;99.40
40822;DHT22;26542;50.836;5.356;2022-07-24T03:17:25;19.10;99.40
40822;DHT22;26542;50.836;5.356;2022-07-24T03:19:51;19.10;99.50
40822;DHT22;26542;50.836;5.356;2022-07-24T03:22:16;19.20;99.50
40822;DHT22;26542;50.836;5.356;2022-07-24T03:24:42;19.20;99.50
40822;DHT22;26542;50.836;5.356;2022-07-24T03:27:11;19.10;99.60
40822;DHT22;26542;50.836;5.356;2022-07-24T03:29:37;19.10;99.60
40822;DHT22;26542;50.836;5.356;2022-07-24T03:32:03;19.10;99.70
40822;DHT22;26542;50.836;5.356;2022-07-24T03:34:28;19.00;99.80
40822;DHT22;26542;50.836;5.356;2022-07-24T03:36:54;19.00;99.90
40822;DHT22;26542;50.836;5.356;2022-07-24T03:39:23;19.00;99.90
40822;DHT22;26542;50.836;5.356;2022-07-24T03:41:49;19.00;99.90
40822;DHT22;26542;50.836;5.356;2022-07-24T03:44:15;19.10;99.90
40822;DHT22;26542;50.836;5.356;2022-07-24T03:46:44;19.10;99.90
40822;DHT22;26542;50.836;5.356;2022-07-24T03:49:10;19.10;99.90
40822;DHT22;26542;50.836;5.356;2022-07-24T03:51:36;19.00;99.90
40822;DHT22;26542;50.836;5.356;2022-07-24T03:54:02;18.90;99.90
40822;DHT22;26542;50.836;5.356;2022-07-24T03:56:31;19.00;99.90
40822;DHT22;26542;50.836;5.356;2022-07-24T03:58:59;18.90;99.90
40822;DHT22;26542;50.836;5.356;2022-07-24T04:01:32;18.90;99.90
40822;DHT22;26542;50.836;5.356;2022-07-24T04:03:58;19.00;99.90
40822;DHT22;26542;50.836;5.356;2022-07-24T04:06:33;18.90;99.90
40822;DHT22;26542;50.836;5.356;2022-07-24T04:08:59;18.90;99.90
40822;DHT22;26542;50.836;5.356;2022-07-24T04:11:26;18.90;99.90
40822;DHT22;26542;50.836;5.356;2022-07-24T04:13:55;18.90;99.90
40822;DHT22;26542;50.836;5.356;2022-07-24T04:16:24;18.90;99.90
40822;DHT22;26542;50.836;5.356;2022-07-24T04:18:51;18.90;99.90
40822;DHT22;26542;50.836;5.356;2022-07-24T04:21:17;19.00;99.90
40822;DHT22;26542;50.836;5.356;2022-07-24T04:23:43;19.00;99.90
40822;DHT22;26542;50.836;5.356;2022-07-24T04:26:10;19.00;99.90
40822;DHT22;26542;50.836;5.356;2022-07-24T04:28:36;19.00;99.90
40822;DHT22;26542;50.836;5.356;2022-07-24T04:31:02;19.00;99.90
40822;DHT22;26542;50.836;5.356;2022-07-24T04:33:28;19.00;99.90
40822;DHT22;26542;50.836;5.356;2022-07-24T04:35:53;19.10;99.90
40822;DHT22;26542;50.836;5.356;2022-07-24T04:38:19;19.10;99.90
40822;DHT22;26542;50.836;5.356;2022-07-24T04:40:45;19.10;99.90
40822;DHT22;26542;50.836;5.356;2022-07-24T04:43:11;19.10;99.90
40822;DHT22;26542;50.836;5.356;2022-07-24T04:45:37;19.20;99.90
40822;DHT22;26542;50.836;5.356;2022-07-24T04:48:03;19.20;99.90
40822;DHT22;26542;50.836;5.356;2022-07-24T04:50:32;19.20;99.90
40822;DHT22;26542;50.836;5.356;2022-07-24T04:52:59;19.20;99.90
40822;DHT22;26542;50.836;5.356;2022-07-24T04:55:24;19.20;99.90
40822;DHT22;26542;50.836;5.356;2022-07-24T04:57:50;19.20;99.90
40822;DHT22;26542;50.836;5.356;2022-07-24T05:00:16;19.30;99.90
40822;DHT22;26542;50.836;5.356;2022-07-24T05:02:42;19.30;99.90
40822;DHT22;26542;50.836;5.356;2022-07-24T05:05:13;19.20;99.90
40822;DHT22;26542;50.836;5.356;2022-07-24T05:07:38;19.20;99.90
40822;DHT22;26542;50.836;5.356;2022-07-24T05:10:07;19.20;99.90
40822;DHT22;26542;50.836;5.356;2022-07-24T05:12:33;19.30;99.90
40822;DHT22;26542;50.836;5.356;2022-07-24T05:14:59;19.30;99.90
40822;DHT22;26542;50.836;5.356;2022-07-24T05:17:25;19.30;99.90
40822;DHT22;26542;50.836;5.356;2022-07-24T05:19:52;19.30;99.90
40822;DHT22;26542;50.836;5.356;2022-07-24T05:22:17;19.30;99.90
40822;DHT22;26542;50.836;5.356;2022-07-24T05:24:43;19.40;99.90
40822;DHT22;26542;50.836;5.356;2022-07-24T05:27:09;19.50;99.90
40822;DHT22;26542;50.836;5.356;2022-07-24T05:29:35;19.60;99.90
40822;DHT22;26542;50.836;5.356;2022-07-24T05:32:00;19.70;99.90
40822;DHT22;26542;50.836;5.356;2022-07-24T05:34:26;19.80;99.90
40822;DHT22;26542;50.836;5.356;2022-07-24T05:36:52;19.70;99.90
40822;DHT22;26542;50.836;5.356;2022-07-24T05:39:17;19.80;99.90
40822;DHT22;26542;50.836;5.356;2022-07-24T05:41:43;19.90;99.90
40822;DHT22;26542;50.836;5.356;2022-07-24T05:44:09;20.10;99.90
40822;DHT22;26542;50.836;5.356;2022-07-24T05:46:35;20.30;99.90
40822;DHT22;26542;50.836;5.356;2022-07-24T05:49:01;20.50;99.90
40822;DHT22;26542;50.836;5.356;2022-07-24T05:51:26;20.70;99.90
40822;DHT22;26542;50.836;5.356;2022-07-24T05:53:52;20.80;99.90
40822;DHT22;26542;50.836;5.356;2022-07-24T05:56:18;21.00;99.90
40822;DHT22;26542;50.836;5.356;2022-07-24T05:58:44;21.20;99.90
40822;DHT22;26542;50.836;5.356;2022-07-24T06:01:10;21.50;99.90
40822;DHT22;26542;50.836;5.356;2022-07-24T06:03:36;21.60;99.20
40822;DHT22;26542;50.836;5.356;2022-07-24T06:06:05;21.70;99.20
40822;DHT22;26542;50.836;5.356;2022-07-24T06:08:31;22.00;98.50
40822;DHT22;26542;50.836;5.356;2022-07-24T06:10:57;22.00;98.30
40822;DHT22;26542;50.836;5.356;2022-07-24T06:13:23;21.90;98.70
40822;DHT22;26542;50.836;5.356;2022-07-24T06:15:49;22.10;98.50
40822;DHT22;26542;50.836;5.356;2022-07-24T06:18:17;22.20;98.30
40822;DHT22;26542;50.836;5.356;2022-07-24T06:20:43;22.20;98.60
40822;DHT22;26542;50.836;5.356;2022-07-24T06:23:14;22.30;98.30
40822;DHT22;26542;50.836;5.356;2022-07-24T06:25:42;22.40;98.00
40822;DHT22;26542;50.836;5.356;2022-07-24T06:28:08;22.50;97.90
40822;DHT22;26542;50.836;5.356;2022-07-24T06:30:34;22.50;97.80
40822;DHT22;26542;50.836;5.356;2022-07-24T06:33:00;22.50;98.10
40822;DHT22;26542;50.836;5.356;2022-07-24T06:35:27;22.50;97.80
40822;DHT22;26542;50.836;5.356;2022-07-24T06:37:54;22.60;97.70
40822;DHT22;26542;50.836;5.356;2022-07-24T06:40:23;22.30;97.90
40822;DHT22;26542;50.836;5.356;2022-07-24T06:42:49;22.40;98.10
40822;DHT22;26542;50.836;5.356;2022-07-24T06:45:15;22.50;98.00
40822;DHT22;26542;50.836;5.356;2022-07-24T06:47:42;22.60;97.90
40822;DHT22;26542;50.836;5.356;2022-07-24T06:50:08;22.70;97.90
40822;DHT22;26542;50.836;5.356;2022-07-24T06:52:34;22.80;97.60
40822;DHT22;26542;50.836;5.356;2022-07-24T06:54:59;22.80;97.60
40822;DHT22;26542;50.836;5.356;2022-07-24T06:57:25;22.90;97.30
40822;DHT22;26542;50.836;5.356;2022-07-24T06:59:52;23.00;97.20
40822;DHT22;26542;50.836;5.356;2022-07-24T07:02:20;23.10;96.90
40822;DHT22;26542;50.836;5.356;2022-07-24T07:04:51;23.30;96.60
40822;DHT22;26542;50.836;5.356;2022-07-24T07:07:16;23.40;96.10
40822;DHT22;26542;50.836;5.356;2022-07-24T07:09:43;23.50;96.20
40822;DHT22;26542;50.836;5.356;2022-07-24T07:12:09;23.50;96.50
40822;DHT22;26542;50.836;5.356;2022-07-24T07:14:37;23.70;96.00
40822;DHT22;26542;50.836;5.356;2022-07-24T07:17:03;23.60;95.70
40822;DHT22;26542;50.836;5.356;2022-07-24T07:19:29;23.60;95.80
40822;DHT22;26542;50.836;5.356;2022-07-24T07:21:54;23.60;96.30
40822;DHT22;26542;50.836;5.356;2022-07-24T07:24:21;23.90;95.80
40822;DHT22;26542;50.836;5.356;2022-07-24T07:26:47;24.00;95.90
40822;DHT22;26542;50.836;5.356;2022-07-24T07:29:12;24.10;96.00
40822;DHT22;26542;50.836;5.356;2022-07-24T07:31:38;24.10;95.60
40822;DHT22;26542;50.836;5.356;2022-07-24T07:34:05;24.10;95.60
40822;DHT22;26542;50.836;5.356;2022-07-24T07:36:31;24.20;94.90
40822;DHT22;26542;50.836;5.356;2022-07-24T07:38:57;24.30;94.60
40822;DHT22;26542;50.836;5.356;2022-07-24T07:41:23;24.50;93.90
40822;DHT22;26542;50.836;5.356;2022-07-24T07:43:50;24.60;94.50
40822;DHT22;26542;50.836;5.356;2022-07-24T07:46:17;24.80;93.60
40822;DHT22;26542;50.836;5.356;2022-07-24T07:48:43;24.80;92.90
40822;DHT22;26542;50.836;5.356;2022-07-24T07:51:11;24.80;93.20
40822;DHT22;26542;50.836;5.356;2022-07-24T07:53:39;24.90;93.40
40822;DHT22;26542;50.836;5.356;2022-07-24T07:56:13;25.00;92.40
40822;DHT22;26542;50.836;5.356;2022-07-24T07:58:39;25.10;92.20
40822;DHT22;26542;50.836;5.356;2022-07-24T08:01:05;25.20;92.30
40822;DHT22;26542;50.836;5.356;2022-07-24T08:03:31;25.30;91.30
40822;DHT22;26542;50.836;5.356;2022-07-24T08:05:58;25.40;90.70
40822;DHT22;26542;50.836;5.356;2022-07-24T08:08:25;25.60;90.60
40822;DHT22;26542;50.836;5.356;2022-07-24T08:10:50;25.60;90.60
40822;DHT22;26542;50.836;5.356;2022-07-24T08:13:16;25.80;91.10
40822;DHT22;26542;50.836;5.356;2022-07-24T08:15:43;25.80;89.90
40822;DHT22;26542;50.836;5.356;2022-07-24T08:18:12;26.00;89.00
40822;DHT22;26542;50.836;5.356;2022-07-24T08:20:38;26.10;87.80
40822;DHT22;26542;50.836;5.356;2022-07-24T08:23:04;26.00;87.30
40822;DHT22;26542;50.836;5.356;2022-07-24T08:25:31;26.10;88.80
40822;DHT22;26542;50.836;5.356;2022-07-24T08:27:57;26.20;89.20
40822;DHT22;26542;50.836;5.356;2022-07-24T08:30:22;26.40;89.00
40822;DHT22;26542;50.836;5.356;2022-07-24T08:32:50;26.40;88.20
40822;DHT22;26542;50.836;5.356;2022-07-24T08:35:19;26.40;88.60
40822;DHT22;26542;50.836;5.356;2022-07-24T08:37:45;26.50;87.20
40822;DHT22;26542;50.836;5.356;2022-07-24T08:40:12;26.50;88.30
40822;DHT22;26542;50.836;5.356;2022-07-24T08:42:41;26.70;87.70
40822;DHT22;26542;50.836;5.356;2022-07-24T08:45:08;26.70;86.90
40822;DHT22;26542;50.836;5.356;2022-07-24T08:47:34;26.70;87.60
40822;DHT22;26542;50.836;5.356;2022-07-24T08:50:03;26.60;86.00
40822;DHT22;26542;50.836;5.356;2022-07-24T08:52:33;26.80;87.00
40822;DHT22;26542;50.836;5.356;2022-07-24T08:55:01;26.90;86.20
40822;DHT22;26542;50.836;5.356;2022-07-24T08:57:27;27.00;85.40
40822;DHT22;26542;50.836;5.356;2022-07-24T08:59:53;27.40;86.50
40822;DHT22;26542;50.836;5.356;2022-07-24T09:02:19;27.60;84.00
40822;DHT22;26542;50.836;5.356;2022-07-24T09:04:48;27.70;80.60
40822;DHT22;26542;50.836;5.356;2022-07-24T09:07:20;27.70;82.90
40822;DHT22;26542;50.836;5.356;2022-07-24T09:10:28;27.90;82.00
40822;DHT22;26542;50.836;5.356;2022-07-24T09:12:55;27.90;81.20
40822;DHT22;26542;50.836;5.356;2022-07-24T09:15:23;27.90;80.80
40822;DHT22;26542;50.836;5.356;2022-07-24T09:17:53;27.80;79.60
40822;DHT22;26542;50.836;5.356;2022-07-24T09:20:23;27.60;81.30
40822;DHT22;26542;50.836;5.356;2022-07-24T09:22:50;27.70;81.00
40822;DHT22;26542;50.836;5.356;2022-07-24T09:25:21;27.80;79.90
40822;DHT22;26542;50.836;5.356;2022-07-24T09:27:51;27.90;80.30
40822;DHT22;26542;50.836;5.356;2022-07-24T09:30:32;28.00;79.60
40822;DHT22;26542;50.836;5.356;2022-07-24T09:33:14;28.10;79.00
40822;DHT22;26542;50.836;5.356;2022-07-24T09:35:48;28.10;80.70
40822;DHT22;26542;50.836;5.356;2022-07-24T09:38:18;28.40;81.80
40822;DHT22;26542;50.836;5.356;2022-07-24T09:40:52;28.60;80.10
40822;DHT22;26542;50.836;5.356;2022-07-24T09:46:07;28.80;78.30
40822;DHT22;26542;50.836;5.356;2022-07-24T09:48:55;28.90;79.10
40822;DHT22;26542;50.836;5.356;2022-07-24T09:51:25;28.90;78.30
40822;DHT22;26542;50.836;5.356;2022-07-24T09:53:58;29.00;78.10
40822;DHT22;26542;50.836;5.356;2022-07-24T09:56:31;28.90;76.90
40822;DHT22;26542;50.836;5.356;2022-07-24T09:58:58;29.00;76.80
40822;DHT22;26542;50.836;5.356;2022-07-24T10:01:29;29.10;78.70
40822;DHT22;26542;50.836;5.356;2022-07-24T10:03:56;29.20;76.40
40822;DHT22;26542;50.836;5.356;2022-07-24T10:06:25;29.20;76.30
40822;DHT22;26542;50.836;5.356;2022-07-24T10:08:54;29.20;77.20
40822;DHT22;26542;50.836;5.356;2022-07-24T10:11:20;29.20;75.00
40822;DHT22;26542;50.836;5.356;2022-07-24T10:13:47;29.20;77.90
40822;DHT22;26542;50.836;5.356;2022-07-24T10:16:31;29.30;75.90
40822;DHT22;26542;50.836;5.356;2022-07-24T10:19:03;29.40;76.30
40822;DHT22;26542;50.836;5.356;2022-07-24T10:21:36;29.40;74.80
40822;DHT22;26542;50.836;5.356;2022-07-24T10:26:48;29.60;75.40
40822;DHT22;26542;50.836;5.356;2022-07-24T10:29:16;29.70;74.30
40822;DHT22;26542;50.836;5.356;2022-07-24T10:31:44;29.90;76.10
40822;DHT22;26542;50.836;5.356;2022-07-24T10:34:42;29.90;75.00
40822;DHT22;26542;50.836;5.356;2022-07-24T10:37:26;29.90;74.20
40822;DHT22;26542;50.836;5.356;2022-07-24T10:42:33;29.90;74.90
40822;DHT22;26542;50.836;5.356;2022-07-24T10:45:20;29.90;76.90
40822;DHT22;26542;50.836;5.356;2022-07-24T10:47:48;29.90;75.00
40822;DHT22;26542;50.836;5.356;2022-07-24T10:50:20;29.70;73.30
40822;DHT22;26542;50.836;5.356;2022-07-24T10:52:51;30.00;75.20
40822;DHT22;26542;50.836;5.356;2022-07-24T10:55:32;30.10;74.50
40822;DHT22;26542;50.836;5.356;2022-07-24T10:58:13;30.30;74.70
40822;DHT22;26542;50.836;5.356;2022-07-24T11:00:45;30.40;74.50
40822;DHT22;26542;50.836;5.356;2022-07-24T11:03:30;30.50;75.20
40822;DHT22;26542;50.836;5.356;2022-07-24T11:06:11;30.60;73.90
40822;DHT22;26542;50.836;5.356;2022-07-24T11:08:49;30.70;72.50
40822;DHT22;26542;50.836;5.356;2022-07-24T11:11:19;30.60;73.60
40822;DHT22;26542;50.836;5.356;2022-07-24T11:13:50;30.70;75.30
40822;DHT22;26542;50.836;5.356;2022-07-24T11:16:19;30.70;73.40
40822;DHT22;26542;50.836;5.356;2022-07-24T11:21:38;30.70;72.20
40822;DHT22;26542;50.836;5.356;2022-07-24T11:26:50;31.00;73.10
40822;DHT22;26542;50.836;5.356;2022-07-24T11:29:17;31.10;71.80
40822;DHT22;26542;50.836;5.356;2022-07-24T11:31:47;31.30;71.30
40822;DHT22;26542;50.836;5.356;2022-07-24T11:34:14;31.50;71.30
40822;DHT22;26542;50.836;5.356;2022-07-24T11:36:41;31.50;73.30
40822;DHT22;26542;50.836;5.356;2022-07-24T11:39:11;31.70;72.80
40822;DHT22;26542;50.836;5.356;2022-07-24T11:41:48;31.80;70.60
40822;DHT22;26542;50.836;5.356;2022-07-24T11:44:20;31.80;72.50
40822;DHT22;26542;50.836;5.356;2022-07-24T11:46:48;31.90;70.30
40822;DHT22;26542;50.836;5.356;2022-07-24T11:49:14;31.90;70.40
40822;DHT22;26542;50.836;5.356;2022-07-24T11:51:47;32.00;70.60
40822;DHT22;26542;50.836;5.356;2022-07-24T11:54:22;32.00;71.20
40822;DHT22;26542;50.836;5.356;2022-07-24T11:56:49;32.10;71.60
40822;DHT22;26542;50.836;5.356;2022-07-24T11:59:29;32.10;70.70
40822;DHT22;26542;50.836;5.356;2022-07-24T12:02:06;31.80;70.70
40822;DHT22;26542;50.836;5.356;2022-07-24T12:04:33;31.60;72.60
40822;DHT22;26542;50.836;5.356;2022-07-24T12:06:59;31.60;72.50
40822;DHT22;26542;50.836;5.356;2022-07-24T12:09:25;31.60;71.50
40822;DHT22;26542;50.836;5.356;2022-07-24T12:11:53;31.80;72.80
40822;DHT22;26542;50.836;5.356;2022-07-24T12:14:23;31.90;71.20
40822;DHT22;26542;50.836;5.356;2022-07-24T12:16:58;31.90;70.90
40822;DHT22;26542;50.836;5.356;2022-07-24T12:19:27;31.90;71.20
40822;DHT22;26542;50.836;5.356;2022-07-24T12:21:55;32.00;72.30
40822;DHT22;26542;50.836;5.356;2022-07-24T12:24:21;32.30;70.50
40822;DHT22;26542;50.836;5.356;2022-07-24T12:26:55;32.50;70.50
40822;DHT22;26542;50.836;5.356;2022-07-24T12:29:22;32.60;70.90
40822;DHT22;26542;50.836;5.356;2022-07-24T12:31:52;32.50;69.60
40822;DHT22;26542;50.836;5.356;2022-07-24T12:34:18;32.70;70.70
40822;DHT22;26542;50.836;5.356;2022-07-24T12:36:47;32.70;71.00
40822;DHT22;26542;50.836;5.356;2022-07-24T12:39:12;32.70;70.90
40822;DHT22;26542;50.836;5.356;2022-07-24T12:41:46;32.80;70.70
40822;DHT22;26542;50.836;5.356;2022-07-24T12:44:14;32.90;70.90
40822;DHT22;26542;50.836;5.356;2022-07-24T12:46:44;32.80;68.80
40822;DHT22;26542;50.836;5.356;2022-07-24T12:49:16;32.70;69.50
40822;DHT22;26542;50.836;5.356;2022-07-24T12:54:23;33.10;70.40
40822;DHT22;26542;50.836;5.356;2022-07-24T12:56:56;33.40;69.30
40822;DHT22;26542;50.836;5.356;2022-07-24T12:59:23;33.50;70.80
40822;DHT22;26542;50.836;5.356;2022-07-24T13:01:54;33.60;69.70
40822;DHT22;26542;50.836;5.356;2022-07-24T13:04:23;33.60;69.90
40822;DHT22;26542;50.836;5.356;2022-07-24T13:06:57;33.50;67.10
40822;DHT22;26542;50.836;5.356;2022-07-24T13:09:24;33.30;67.70
40822;DHT22;26542;50.836;5.356;2022-07-24T13:12:12;33.40;70.10
40822;DHT22;26542;50.836;5.356;2022-07-24T13:14:42;33.70;69.20
40822;DHT22;26542;50.836;5.356;2022-07-24T13:17:14;33.90;69.50
40822;DHT22;26542;50.836;5.356;2022-07-24T13:19:45;34.00;68.50
40822;DHT22;26542;50.836;5.356;2022-07-24T13:22:11;34.00;67.70
40822;DHT22;26542;50.836;5.356;2022-07-24T13:24:42;34.00;67.40
40822;DHT22;26542;50.836;5.356;2022-07-24T13:27:10;34.00;66.40
40822;DHT22;26542;50.836;5.356;2022-07-24T13:29:36;34.00;68.20
40822;DHT22;26542;50.836;5.356;2022-07-24T13:32:03;34.00;67.60
40822;DHT22;26542;50.836;5.356;2022-07-24T13:34:29;34.10;68.80
40822;DHT22;26542;50.836;5.356;2022-07-24T13:36:55;34.20;66.70
40822;DHT22;26542;50.836;5.356;2022-07-24T13:39:22;34.30;66.70
40822;DHT22;26542;50.836;5.356;2022-07-24T13:41:47;34.40;66.50
40822;DHT22;26542;50.836;5.356;2022-07-24T13:44:13;34.60;66.10
40822;DHT22;26542;50.836;5.356;2022-07-24T13:46:43;34.50;67.30
40822;DHT22;26542;50.836;5.356;2022-07-24T13:49:09;34.40;66.80
40822;DHT22;26542;50.836;5.356;2022-07-24T13:51:37;34.20;66.20
40822;DHT22;26542;50.836;5.356;2022-07-24T13:54:05;34.00;67.10
40822;DHT22;26542;50.836;5.356;2022-07-24T13:56:31;33.90;65.50
40822;DHT22;26542;50.836;5.356;2022-07-24T13:58:58;33.90;66.40
40822;DHT22;26542;50.836;5.356;2022-07-24T14:01:24;34.10;66.60
40822;DHT22;26542;50.836;5.356;2022-07-24T14:03:50;34.20;67.80
40822;DHT22;26542;50.836;5.356;2022-07-24T14:06:16;34.30;66.20
40822;DHT22;26542;50.836;5.356;2022-07-24T14:08:41;34.00;66.40
40822;DHT22;26542;50.836;5.356;2022-07-24T14:11:08;33.90;65.70
40822;DHT22;26542;50.836;5.356;2022-07-24T14:13:34;34.00;66.40
40822;DHT22;26542;50.836;5.356;2022-07-24T14:16:00;34.20;66.50
40822;DHT22;26542;50.836;5.356;2022-07-24T14:18:29;34.30;67.90
40822;DHT22;26542;50.836;5.356;2022-07-24T14:20:55;34.40;64.30
40822;DHT22;26542;50.836;5.356;2022-07-24T14:23:22;34.40;64.20
40822;DHT22;26542;50.836;5.356;2022-07-24T14:25:48;34.50;64.50
40822;DHT22;26542;50.836;5.356;2022-07-24T14:28:17;34.60;65.20
40822;DHT22;26542;50.836;5.356;2022-07-24T14:30:46;34.60;65.10
40822;DHT22;26542;50.836;5.356;2022-07-24T14:33:14;34.50;65.10
40822;DHT22;26542;50.836;5.356;2022-07-24T14:35:40;34.50;64.30
40822;DHT22;26542;50.836;5.356;2022-07-24T14:38:06;34.50;63.80
40822;DHT22;26542;50.836;5.356;2022-07-24T14:40:32;34.50;64.20
40822;DHT22;26542;50.836;5.356;2022-07-24T14:42:58;34.50;64.90
40822;DHT22;26542;50.836;5.356;2022-07-24T14:45:27;34.40;65.40
40822;DHT22;26542;50.836;5.356;2022-07-24T14:47:57;34.40;64.40
40822;DHT22;26542;50.836;5.356;2022-07-24T14:50:25;34.30;63.80
40822;DHT22;26542;50.836;5.356;2022-07-24T14:52:54;34.30;65.10
40822;DHT22;26542;50.836;5.356;2022-07-24T14:55:20;34.30;64.00
40822;DHT22;26542;50.836;5.356;2022-07-24T14:57:46;34.30;64.00
40822;DHT22;26542;50.836;5.356;2022-07-24T15:00:12;34.30;64.90
40822;DHT22;26542;50.836;5.356;2022-07-24T15:02:38;34.50;63.70
40822;DHT22;26542;50.836;5.356;2022-07-24T15:05:05;34.60;64.80
40822;DHT22;26542;50.836;5.356;2022-07-24T15:07:34;34.70;63.00
40822;DHT22;26542;50.836;5.356;2022-07-24T15:09:59;34.90;64.60
40822;DHT22;26542;50.836;5.356;2022-07-24T15:12:27;35.10;62.80
40822;DHT22;26542;50.836;5.356;2022-07-24T15:14:53;35.20;64.00
40822;DHT22;26542;50.836;5.356;2022-07-24T15:17:22;35.30;62.40
40822;DHT22;26542;50.836;5.356;2022-07-24T15:19:48;35.30;62.00
40822;DHT22;26542;50.836;5.356;2022-07-24T15:22:14;35.50;63.10
40822;DHT22;26542;50.836;5.356;2022-07-24T15:24:39;35.50;62.20
40822;DHT22;26542;50.836;5.356;2022-07-24T15:27:05;35.50;63.00
40822;DHT22;26542;50.836;5.356;2022-07-24T15:29:31;35.60;62.40
40822;DHT22;26542;50.836;5.356;2022-07-24T15:31:57;35.50;62.10
40822;DHT22;26542;50.836;5.356;2022-07-24T15:34:29;35.40;61.70
40822;DHT22;26542;50.836;5.356;2022-07-24T15:36:56;35.30;62.40
40822;DHT22;26542;50.836;5.356;2022-07-24T15:39:24;35.20;62.10
40822;DHT22;26542;50.836;5.356;2022-07-24T15:41:52;35.10;63.00
40822;DHT22;26542;50.836;5.356;2022-07-24T15:44:18;35.10;62.40
40822;DHT22;26542;50.836;5.356;2022-07-24T15:46:44;35.10;63.70
40822;DHT22;26542;50.836;5.356;2022-07-24T15:49:11;35.10;63.00
40822;DHT22;26542;50.836;5.356;2022-07-24T15:51:37;35.10;63.50